Simcha — PE7688 — position and weather

sailwx.info

Track history (hours):
 
Tides and Currents Weather Stations Pressure Air Temp Water Temp Dewpoint Dewpoint Depression Visibility Wind Speed Wind Dir Waves Ship Positions

Simcha

Last reported at 2014-Aug-19 12:30 UTC. Time now 2014-Aug-20 22:26 UTC.
Position N 52°10' E 006°18'.

Length 10 m.

Type: Ship. MMSI: 244780014.

Date/timePositionNaut miles runAvg speedWind from/ knotsBaromVisibWave heightAir tempDewpointWater temp
2014-Aug-19 12:30N 52°10' E 006°18'5 5.4
2014-Aug-19 11:31N 52°10' E 006°26'1 1.3
2014-Aug-19 10:33N 52°10' E 006°24'0 0.2
2014-Aug-19 09:33N 52°10' E 006°24'0 0.0
2014-Aug-19 08:32N 52°10' E 006°24'0 0.0
2014-Aug-19 07:32N 52°10' E 006°24'0 0.0
2014-Aug-19 06:33N 52°10' E 006°24'0 0.0
2014-Aug-19 05:33N 52°10' E 006°24'0 0.0
2014-Aug-19 04:33N 52°10' E 006°24'0 0.0
2014-Aug-19 03:32N 52°10' E 006°24'0 0.0
2014-Aug-19 02:33N 52°10' E 006°24'0 0.0
2014-Aug-19 01:33N 52°10' E 006°24'0 0.0
2014-Aug-19 00:33N 52°10' E 006°24'0 0.0
2014-Aug-18 23:32N 52°10' E 006°24'0 0.0
2014-Aug-18 22:32N 52°10' E 006°24'0 0.0
2014-Aug-18 21:33N 52°10' E 006°24'0 0.0
2014-Aug-18 20:33N 52°10' E 006°24'0 0.0
2014-Aug-18 19:32N 52°10' E 006°24'0 0.0
2014-Aug-18 18:32N 52°10' E 006°24'0 0.0
2014-Aug-18 17:33N 52°10' E 006°24'0 0.0
2014-Aug-18 16:33N 52°10' E 006°24'0 0.0
2014-Aug-18 15:32N 52°10' E 006°24'0 0.0
2014-Aug-18 14:32N 52°10' E 006°24'0 0.0
2014-Aug-18 13:33N 52°10' E 006°24'0 0.0
2014-Aug-18 12:33N 52°10' E 006°24'0 0.0
2014-Aug-18 11:32N 52°10' E 006°24'0 0.0
2014-Aug-18 10:32N 52°10' E 006°24'0 0.1
2014-Aug-18 09:33N 52°10' E 006°24'0 0.0
2014-Aug-18 08:33N 52°10' E 006°24'0 0.0
2014-Aug-18 07:32N 52°10' E 006°24'0 0.0
2014-Aug-18 06:32N 52°10' E 006°24'0 0.0
2014-Aug-18 05:33N 52°10' E 006°24'0 0.0
2014-Aug-18 04:33N 52°10' E 006°24'0 0.0
2014-Aug-18 03:32N 52°10' E 006°24'0 0.0
2014-Aug-18 02:32N 52°10' E 006°24'0 0.0
2014-Aug-18 01:33N 52°10' E 006°24'0 0.0
2014-Aug-18 00:33N 52°10' E 006°24'0 0.0
2014-Aug-17 18:33N 52°10' E 006°24'0 0.0
2014-Aug-17 17:33N 52°10' E 006°24'0 0.0
2014-Aug-17 16:33N 52°10' E 006°24'0 0.0
2014-Aug-17 15:32N 52°10' E 006°24'0 0.0
2014-Aug-17 14:33N 52°10' E 006°24'0 0.0
2014-Aug-17 13:33N 52°10' E 006°24'0 0.0
2014-Aug-17 12:32N 52°10' E 006°24'0 0.0
2014-Aug-17 11:32N 52°10' E 006°24'0 0.0
2014-Aug-17 10:33N 52°10' E 006°24'0 0.0
2014-Aug-17 09:33N 52°10' E 006°24'0 0.0
2014-Aug-17 08:32N 52°10' E 006°24'0 0.0
2014-Aug-17 07:33N 52°10' E 006°24'0 0.0
2014-Aug-17 06:33N 52°10' E 006°24'0 0.0
2014-Aug-17 05:34N 52°10' E 006°24'0 0.0
2014-Aug-17 04:32N 52°10' E 006°24'0 0.0
2014-Aug-17 03:33N 52°10' E 006°24'0 0.0
2014-Aug-17 02:33N 52°10' E 006°24'0 0.0
2014-Aug-17 01:32N 52°10' E 006°24'0 0.0
2014-Aug-17 00:32N 52°10' E 006°24'0 0.0
2014-Aug-16 23:33N 52°10' E 006°24'0 0.0
2014-Aug-16 22:33N 52°10' E 006°24'0 0.0
2014-Aug-16 21:32N 52°10' E 006°24'0 0.0
2014-Aug-16 20:33N 52°10' E 006°24'0 0.0
2014-Aug-16 19:33N 52°10' E 006°24'0 0.0
2014-Aug-16 18:32N 52°10' E 006°24'0 0.0
2014-Aug-16 17:32N 52°10' E 006°24'0 0.0
2014-Aug-16 16:33N 52°10' E 006°24'0 0.0
2014-Aug-16 15:33N 52°10' E 006°24'0 0.0
2014-Aug-16 14:32N 52°10' E 006°24'0 0.0
2014-Aug-16 13:33N 52°10' E 006°24'0 0.0
2014-Aug-16 12:33N 52°10' E 006°24'0 0.0
2014-Aug-16 11:33N 52°10' E 006°24'0 0.0
2014-Aug-16 10:32N 52°10' E 006°24'0 0.0
2014-Aug-16 09:33N 52°10' E 006°24'0 0.1
2014-Aug-16 08:33N 52°10' E 006°24'4 3.6
2014-Aug-16 07:34N 52°10' E 006°18'59 3.1
2014-Aug-15 12:25N 51°14' E 006°45'  
Track history (hours):
 
Tides and Currents Weather Stations Pressure Air Temp Water Temp Dewpoint Dewpoint Depression Visibility Wind Speed Wind Dir Waves Ship Positions

Simcha

Last reported at 2014-Aug-19 12:30 UTC. Time now 2014-Aug-20 22:26 UTC.
Position N 52°10' E 006°18'.

Length 10 m.

Type: Ship. MMSI: 244780014.

Date/timePositionNaut miles runAvg speedWind from/ knotsBaromVisibWave heightAir tempDewpointWater temp
2014-Aug-19 12:30N 52°10' E 006°18'5 5.4
2014-Aug-19 11:31N 52°10' E 006°26'1 1.3
2014-Aug-19 10:33N 52°10' E 006°24'0 0.2
2014-Aug-19 09:33N 52°10' E 006°24'0 0.0
2014-Aug-19 08:32N 52°10' E 006°24'0 0.0
2014-Aug-19 07:32N 52°10' E 006°24'0 0.0
2014-Aug-19 06:33N 52°10' E 006°24'0 0.0
2014-Aug-19 05:33N 52°10' E 006°24'0 0.0
2014-Aug-19 04:33N 52°10' E 006°24'0 0.0
2014-Aug-19 03:32N 52°10' E 006°24'0 0.0
2014-Aug-19 02:33N 52°10' E 006°24'0 0.0
2014-Aug-19 01:33N 52°10' E 006°24'0 0.0
2014-Aug-19 00:33N 52°10' E 006°24'0 0.0
2014-Aug-18 23:32N 52°10' E 006°24'0 0.0
2014-Aug-18 22:32N 52°10' E 006°24'0 0.0
2014-Aug-18 21:33N 52°10' E 006°24'0 0.0
2014-Aug-18 20:33N 52°10' E 006°24'0 0.0
2014-Aug-18 19:32N 52°10' E 006°24'0 0.0
2014-Aug-18 18:32N 52°10' E 006°24'0 0.0
2014-Aug-18 17:33N 52°10' E 006°24'0 0.0
2014-Aug-18 16:33N 52°10' E 006°24'0 0.0
2014-Aug-18 15:32N 52°10' E 006°24'0 0.0
2014-Aug-18 14:32N 52°10' E 006°24'0 0.0
2014-Aug-18 13:33N 52°10' E 006°24'0 0.0
2014-Aug-18 12:33N 52°10' E 006°24'0 0.0
2014-Aug-18 11:32N 52°10' E 006°24'0 0.0
2014-Aug-18 10:32N 52°10' E 006°24'0 0.1
2014-Aug-18 09:33N 52°10' E 006°24'0 0.0
2014-Aug-18 08:33N 52°10' E 006°24'0 0.0
2014-Aug-18 07:32N 52°10' E 006°24'0 0.0
2014-Aug-18 06:32N 52°10' E 006°24'0 0.0
2014-Aug-18 05:33N 52°10' E 006°24'0 0.0
2014-Aug-18 04:33N 52°10' E 006°24'0 0.0
2014-Aug-18 03:32N 52°10' E 006°24'0 0.0
2014-Aug-18 02:32N 52°10' E 006°24'0 0.0
2014-Aug-18 01:33N 52°10' E 006°24'0 0.0
2014-Aug-18 00:33N 52°10' E 006°24'0 0.0
2014-Aug-17 18:33N 52°10' E 006°24'0 0.0
2014-Aug-17 17:33N 52°10' E 006°24'0 0.0
2014-Aug-17 16:33N 52°10' E 006°24'0 0.0
2014-Aug-17 15:32N 52°10' E 006°24'0 0.0
2014-Aug-17 14:33N 52°10' E 006°24'0 0.0
2014-Aug-17 13:33N 52°10' E 006°24'0 0.0
2014-Aug-17 12:32N 52°10' E 006°24'0 0.0
2014-Aug-17 11:32N 52°10' E 006°24'0 0.0
2014-Aug-17 10:33N 52°10' E 006°24'0 0.0
2014-Aug-17 09:33N 52°10' E 006°24'0 0.0
2014-Aug-17 08:32N 52°10' E 006°24'0 0.0
2014-Aug-17 07:33N 52°10' E 006°24'0 0.0
2014-Aug-17 06:33N 52°10' E 006°24'0 0.0
2014-Aug-17 05:34N 52°10' E 006°24'0 0.0
2014-Aug-17 04:32N 52°10' E 006°24'0 0.0
2014-Aug-17 03:33N 52°10' E 006°24'0 0.0
2014-Aug-17 02:33N 52°10' E 006°24'0 0.0
2014-Aug-17 01:32N 52°10' E 006°24'0 0.0
2014-Aug-17 00:32N 52°10' E 006°24'0 0.0
2014-Aug-16 23:33N 52°10' E 006°24'0 0.0
2014-Aug-16 22:33N 52°10' E 006°24'0 0.0
2014-Aug-16 21:32N 52°10' E 006°24'0 0.0
2014-Aug-16 20:33N 52°10' E 006°24'0 0.0
2014-Aug-16 19:33N 52°10' E 006°24'0 0.0
2014-Aug-16 18:32N 52°10' E 006°24'0 0.0
2014-Aug-16 17:32N 52°10' E 006°24'0 0.0
2014-Aug-16 16:33N 52°10' E 006°24'0 0.0
2014-Aug-16 15:33N 52°10' E 006°24'0 0.0
2014-Aug-16 14:32N 52°10' E 006°24'0 0.0
2014-Aug-16 13:33N 52°10' E 006°24'0 0.0
2014-Aug-16 12:33N 52°10' E 006°24'0 0.0
2014-Aug-16 11:33N 52°10' E 006°24'0 0.0
2014-Aug-16 10:32N 52°10' E 006°24'0 0.0
2014-Aug-16 09:33N 52°10' E 006°24'0 0.1
2014-Aug-16 08:33N 52°10' E 006°24'4 3.6
2014-Aug-16 07:34N 52°10' E 006°18'59 3.1
2014-Aug-15 12:25N 51°14' E 006°45'  

Dump ship's entire track history